Time;durP1;ratioP1;P1;durP2;ratioP2;P2;SDS_P1;SDS_P2;PMS_P1;PMS_P2;Temp;Humidity;BMP_temperature;BMP_pressure;BME280_temperature;BME280_humidity;BME280_pressure;Samples;Min_cycle;Max_cycle;Signal;HPM_P1;HPM_P2
2023/06/20 00:00:50;;;;;;;15.82;8.43;;;;;;;21.28;100.00;100760.47;4946537;28;20047;-69
2023/06/20 00:03:17;;;;;;;15.55;8.35;;;;;;;21.32;100.00;100772.34;4947625;28;20047;-70
2023/06/20 00:05:44;;;;;;;25.60;9.30;;;;;;;21.31;100.00;100770.81;4948237;28;20771;-69
2023/06/20 00:08:11;;;;;;;16.23;8.45;;;;;;;21.27;100.00;100758.13;4948386;28;20047;-70
2023/06/20 00:10:37;;;;;;;15.55;7.97;;;;;;;21.23;100.00;100757.56;4946059;28;20047;-69
2023/06/20 00:13:04;;;;;;;18.67;8.05;;;;;;;21.16;100.00;100741.75;4948439;28;20493;-69
2023/06/20 00:15:31;;;;;;;18.75;8.52;;;;;;;21.17;100.00;100739.72;4977745;28;20593;-69
2023/06/20 00:18:01;;;;;;;15.15;7.95;;;;;;;21.19;100.00;100745.66;4940456;28;20100;-71
2023/06/20 00:20:28;;;;;;;18.25;8.77;;;;;;;21.15;100.00;100745.88;4947067;28;20530;-70
2023/06/20 00:22:55;;;;;;;16.08;8.13;;;;;;;21.15;100.00;100751.53;4947777;28;20047;-69
2023/06/20 00:25:22;;;;;;;19.05;9.55;;;;;;;21.17;100.00;100748.19;4944709;28;20110;-69
2023/06/20 00:27:50;;;;;;;16.15;9.00;;;;;;;21.16;100.00;100750.25;4946167;28;20483;-70
2023/06/20 00:30:16;;;;;;;15.50;8.57;;;;;;;21.10;100.00;100746.53;4953826;28;20138;-69
2023/06/20 00:32:43;;;;;;;19.52;8.52;;;;;;;21.14;100.00;100757.66;4948286;28;20087;-69
2023/06/20 00:35:09;;;;;;;16.65;8.25;;;;;;;21.14;100.00;100743.53;4947794;28;20102;-69
2023/06/20 00:37:38;;;;;;;16.67;9.63;;;;;;;21.17;100.00;100751.03;4947915;28;20047;-69
2023/06/20 00:40:07;;;;;;;21.55;9.85;;;;;;;21.17;100.00;100745.38;4951882;28;20055;-68
2023/06/20 00:42:34;;;;;;;19.92;9.85;;;;;;;21.18;100.00;100744.09;4949746;28;20510;-69
2023/06/20 00:45:01;;;;;;;17.50;9.40;;;;;;;21.20;100.00;100741.56;4942667;29;20047;-69
2023/06/20 00:47:27;;;;;;;19.92;10.23;;;;;;;21.20;100.00;100753.66;4952163;28;20087;-67
2023/06/20 00:49:55;;;;;;;17.35;9.45;;;;;;;21.23;100.00;100740.59;4950601;28;20051;-70
2023/06/20 00:52:24;;;;;;;17.73;9.57;;;;;;;21.26;100.00;100751.69;4947375;28;20134;-69
2023/06/20 00:54:51;;;;;;;16.42;9.30;;;;;;;21.29;100.00;100741.44;4950757;28;20138;-69
2023/06/20 00:57:19;;;;;;;18.88;8.82;;;;;;;21.31;100.00;100745.34;4944560;28;20106;-69
2023/06/20 00:59:49;;;;;;;19.20;9.73;;;;;;;21.32;100.00;100741.25;4951637;28;20047;-69
2023/06/20 01:02:16;;;;;;;18.80;9.32;;;;;;;21.28;100.00;100732.19;4951316;28;20051;-69
2023/06/20 01:04:47;;;;;;;19.25;9.48;;;;;;;21.28;100.00;100737.06;4950743;28;20055;-70
2023/06/20 01:07:26;;;;;;;17.25;9.40;;;;;;;21.25;100.00;100729.56;4947229;28;20463;-69
2023/06/20 01:10:19;;;;;;;17.90;9.80;;;;;;;21.23;100.00;100727.22;4945976;28;20458;-69
2023/06/20 01:13:17;;;;;;;19.27;9.05;;;;;;;21.22;100.00;100724.88;4947947;28;20052;-69
2023/06/20 01:15:51;;;;;;;18.05;9.35;;;;;;;21.21;100.00;100732.59;4948581;28;20583;-69
2023/06/20 01:18:33;;;;;;;18.48;9.85;;;;;;;21.17;100.00;100725.59;4953189;28;20047;-70
2023/06/20 01:21:30;;;;;;;17.48;9.57;;;;;;;21.12;100.00;100721.41;4949867;28;21224;-67
2023/06/20 01:24:07;;;;;;;20.42;9.63;;;;;;;21.12;100.00;100727.06;4949479;28;20454;-69
2023/06/20 01:26:47;;;;;;;18.15;9.93;;;;;;;21.14;100.00;100720.91;4950336;28;20070;-71
2023/06/20 01:29:25;;;;;;;16.88;9.68;;;;;;;21.11;100.00;100713.41;4949973;28;20101;-68
2023/06/20 01:31:56;;;;;;;19.17;9.70;;;;;;;21.13;100.00;100720.13;4949787;28;20141;-69
2023/06/20 01:34:28;;;;;;;18.10;9.32;;;;;;;21.11;100.00;100717.03;4949681;28;20134;-69
2023/06/20 01:37:00;;;;;;;21.38;9.88;;;;;;;21.12;100.00;100714.97;4945347;28;20078;-70
2023/06/20 01:39:44;;;;;;;16.67;8.77;;;;;;;21.10;100.00;100709.03;4948589;29;20058;-69
2023/06/20 01:42:12;;;;;;;19.08;9.95;;;;;;;21.12;100.00;100715.75;4953559;28;20781;-69
2023/06/20 01:44:41;;;;;;;18.50;9.10;;;;;;;21.11;100.00;100714.19;4949333;28;20051;-69
2023/06/20 01:47:11;;;;;;;16.92;9.68;;;;;;;21.10;100.00;100711.84;4975229;28;20059;-71
2023/06/20 01:49:39;;;;;;;19.05;9.75;;;;;;;21.11;100.00;100710.59;4948729;28;20487;-70
2023/06/20 01:52:06;;;;;;;17.20;9.90;;;;;;;21.09;100.00;100713.91;4954739;28;20144;-70
2023/06/20 01:54:34;;;;;;;19.65;10.15;;;;;;;21.07;100.00;100713.63;4950479;28;20119;-69
2023/06/20 01:57:02;;;;;;;19.40;9.75;;;;;;;21.03;100.00;100721.50;4947546;28;20055;-69
2023/06/20 01:59:30;;;;;;;21.20;10.27;;;;;;;21.04;100.00;100710.97;4948660;28;20514;-70
2023/06/20 02:01:59;;;;;;;18.30;9.63;;;;;;;21.00;100.00;100701.94;4949092;28;20241;-72
2023/06/20 02:04:27;;;;;;;18.83;10.48;;;;;;;20.98;100.00;100701.63;4947964;28;20074;-68
2023/06/20 02:06:55;;;;;;;17.80;10.23;;;;;;;20.97;100.00;100700.09;4947759;28;20137;-67
2023/06/20 02:09:23;;;;;;;17.23;10.15;;;;;;;20.97;100.00;100695.22;4950360;28;20106;-70
2023/06/20 02:11:50;;;;;;;21.27;9.82;;;;;;;20.95;100.00;100702.59;4950394;28;20347;-67
2023/06/20 02:14:17;;;;;;;20.17;10.25;;;;;;;20.93;100.00;100711.56;4951086;28;20130;-70
2023/06/20 02:16:48;;;;;;;18.80;10.38;;;;;;;20.92;100.00;100721.28;4949068;28;20109;-70
2023/06/20 02:19:14;;;;;;;19.67;10.98;;;;;;;20.93;100.00;100714.41;4946839;28;20482;-70
2023/06/20 02:21:47;;;;;;;19.20;9.98;;;;;;;20.91;100.00;100705.63;4948735;28;20160;-72
2023/06/20 02:24:20;;;;;;;18.35;10.65;;;;;;;20.86;100.00;100706.28;4950309;28;20047;-68
2023/06/20 02:26:51;;;;;;;19.58;10.55;;;;;;;20.87;100.00;100705.03;4943958;28;20105;-70
2023/06/20 02:29:19;;;;;;;19.85;11.68;;;;;;;20.82;100.00;100708.53;4950455;28;20126;-70
2023/06/20 02:31:48;;;;;;;18.02;10.52;;;;;;;20.77;100.00;100720.53;4950573;28;20134;-70
2023/06/20 02:34:20;;;;;;;19.10;11.50;;;;;;;20.74;100.00;100715.06;4945303;29;20051;-71
2023/06/20 02:36:47;;;;;;;19.95;11.35;;;;;;;20.72;100.00;100717.63;4946587;28;20169;-69
2023/06/20 02:39:14;;;;;;;20.55;11.02;;;;;;;20.70;100.00;100720.94;4948606;28;20414;-70
2023/06/20 02:41:41;;;;;;;19.00;11.75;;;;;;;20.65;100.00;100724.41;4949689;28;20434;-69
2023/06/20 02:44:08;;;;;;;19.10;10.85;;;;;;;20.59;100.00;100708.66;4981281;28;20122;-70
2023/06/20 02:47:08;;;;;;;20.48;11.65;;;;;;;20.63;100.00;100718.50;4949417;28;20463;-70
2023/06/20 02:49:53;;;;;;;20.17;11.48;;;;;;;20.64;100.00;100717.22;4948793;28;20481;-70
2023/06/20 02:52:45;;;;;;;19.55;11.55;;;;;;;20.63;100.00;100710.03;4948651;28;20079;-70
2023/06/20 02:55:38;;;;;;;20.40;11.27;;;;;;;20.60;100.00;100725.13;4943409;29;20105;-70
2023/06/20 02:58:15;;;;;;;20.55;12.27;;;;;;;20.58;100.00;100718.38;4944297;29;20517;-70
2023/06/20 03:00:48;;;;;;;19.38;11.52;;;;;;;20.57;100.00;100717.63;4950106;28;20047;-70
2023/06/20 03:03:21;;;;;;;21.60;12.20;;;;;;;20.54;100.00;100715.75;4946214;29;20078;-70
2023/06/20 03:05:50;;;;;;;22.70;11.77;;;;;;;20.55;100.00;100720.13;4949999;28;20047;-69
2023/06/20 03:08:20;;;;;;;22.98;12.23;;;;;;;20.51;100.00;100719.56;4949820;28;20134;-69
2023/06/20 03:10:47;;;;;;;19.90;11.35;;;;;;;20.52;100.00;100723.16;4944887;28;20090;-69
2023/06/20 03:13:15;;;;;;;23.10;11.43;;;;;;;20.50;100.00;100718.00;4941892;28;20085;-70
2023/06/20 03:15:42;;;;;;;21.65;11.20;;;;;;;20.51;100.00;100715.94;4949118;28;20051;-70
2023/06/20 03:18:08;;;;;;;17.92;11.15;;;;;;;20.52;100.00;100732.41;4947778;28;20043;-70
2023/06/20 03:20:35;;;;;;;20.13;11.80;;;;;;;20.51;100.00;100730.84;4948046;28;20513;-70
2023/06/20 03:23:01;;;;;;;19.48;11.48;;;;;;;20.49;100.00;100732.59;4958296;28;20450;-69
2023/06/20 03:25:28;;;;;;;18.85;11.18;;;;;;;20.46;100.00;100733.56;4944885;28;20134;-69
2023/06/20 03:27:54;;;;;;;30.00;12.30;;;;;;;20.44;100.00;100728.41;4944190;28;20053;-71
2023/06/20 03:30:21;;;;;;;23.95;11.75;;;;;;;20.40;100.00;100736.28;4949624;28;20135;-72
2023/06/20 03:32:48;;;;;;;21.23;12.38;;;;;;;20.41;100.00;100732.19;4949172;28;20043;-70
2023/06/20 03:35:14;;;;;;;20.10;11.10;;;;;;;20.46;100.00;100750.50;4948125;28;20047;-71
2023/06/20 03:37:41;;;;;;;20.98;11.88;;;;;;;20.46;100.00;100740.00;4946554;28;20087;-71
2023/06/20 03:40:08;;;;;;;19.80;11.20;;;;;;;20.42;100.00;100739.41;4943278;29;20051;-70
2023/06/20 03:42:35;;;;;;;22.63;12.00;;;;;;;20.39;100.00;100746.00;4948778;28;20055;-71
2023/06/20 03:45:01;;;;;;;21.42;12.18;;;;;;;20.34;100.00;100743.88;4949215;28;20668;-72
2023/06/20 03:47:28;;;;;;;22.13;11.48;;;;;;;20.34;100.00;100745.91;4949280;28;20055;-71
2023/06/20 03:49:54;;;;;;;20.67;10.50;;;;;;;20.33;100.00;100747.97;4948061;28;20047;-72
2023/06/20 03:52:21;;;;;;;17.95;10.70;;;;;;;20.36;100.00;100747.00;4951809;28;20101;-71
2023/06/20 03:54:47;;;;;;;22.48;11.45;;;;;;;20.38;100.00;100750.09;4947151;28;20098;-72
2023/06/20 03:57:14;;;;;;;23.08;11.70;;;;;;;20.41;100.00;100754.78;4942667;28;20055;-70
2023/06/20 03:59:40;;;;;;;20.88;10.45;;;;;;;20.43;100.00;100769.22;4979291;28;20367;-71
2023/06/20 04:02:07;;;;;;;24.20;12.40;;;;;;;20.44;100.00;100765.13;4948862;28;20051;-73
2023/06/20 04:04:33;;;;;;;18.67;10.27;;;;;;;20.48;100.00;100765.69;4947581;29;20537;-71
2023/06/20 04:07:00;;;;;;;18.38;10.40;;;;;;;20.49;100.00;100761.59;4947821;28;20069;-71
2023/06/20 04:09:26;;;;;;;20.70;11.18;;;;;;;20.47;100.00;100755.69;4946827;28;20885;-71
2023/06/20 04:11:54;;;;;;;21.00;11.32;;;;;;;20.49;100.00;100767.25;4943020;28;20134;-70
2023/06/20 04:14:21;;;;;;;17.77;10.93;;;;;;;20.52;100.00;100759.88;4952242;28;20051;-71
2023/06/20 04:16:49;;;;;;;20.58;10.40;;;;;;;20.52;100.00;100754.22;4952513;28;20055;-70
2023/06/20 04:19:22;;;;;;;16.65;10.23;;;;;;;20.48;100.00;100760.06;4953098;28;20075;-71
2023/06/20 04:21:49;;;;;;;20.17;10.85;;;;;;;20.47;100.00;100750.03;4951817;28;20075;-71
2023/06/20 04:24:16;;;;;;;18.63;10.63;;;;;;;20.50;100.00;100746.25;4949277;28;20056;-70
2023/06/20 04:26:46;;;;;;;19.75;10.68;;;;;;;20.47;100.00;100747.22;4942805;28;20427;-70
2023/06/20 04:29:12;;;;;;;23.98;11.25;;;;;;;20.50;100.00;100739.81;4951133;28;20051;-71
2023/06/20 04:31:39;;;;;;;16.65;9.95;;;;;;;20.52;100.00;100738.03;4952455;28;20164;-71
2023/06/20 04:34:05;;;;;;;17.77;10.20;;;;;;;20.55;100.00;100739.91;4952376;28;20142;-70
2023/06/20 04:36:33;;;;;;;19.75;10.23;;;;;;;20.55;100.00;100730.66;4944333;28;20605;-71
2023/06/20 04:39:01;;;;;;;20.33;10.27;;;;;;;20.62;100.00;100733.88;4951829;28;20051;-74
2023/06/20 04:41:27;;;;;;;20.65;12.35;;;;;;;20.64;100.00;100736.22;4950449;28;20155;-72
2023/06/20 04:43:54;;;;;;;18.13;10.05;;;;;;;20.71;100.00;100742.25;4952443;28;20069;-71
2023/06/20 04:46:20;;;;;;;23.88;11.57;;;;;;;20.73;100.00;100736.91;4952187;28;20158;-72
2023/06/20 04:48:47;;;;;;;22.20;11.32;;;;;;;20.78;100.00;100747.50;4952052;28;20051;-71
2023/06/20 04:51:16;;;;;;;21.23;10.90;;;;;;;20.81;100.00;100751.41;4952550;28;20083;-68
2023/06/20 04:53:42;;;;;;;21.63;11.45;;;;;;;20.82;100.00;100738.84;4950312;28;20110;-71
2023/06/20 04:56:09;;;;;;;22.25;10.02;;;;;;;20.82;100.00;100750.91;4951450;28;20122;-71
2023/06/20 04:58:36;;;;;;;18.88;10.27;;;;;;;20.82;100.00;100741.69;4951740;28;20134;-72
2023/06/20 05:01:03;;;;;;;17.67;9.98;;;;;;;20.82;100.00;100741.69;4949787;28;20501;-73
2023/06/20 05:03:30;;;;;;;19.00;10.60;;;;;;;20.87;100.00;100750.25;4951710;28;20051;-71
2023/06/20 05:05:56;;;;;;;20.48;10.05;;;;;;;20.92;100.00;100754.41;4951780;28;20849;-73
2023/06/20 05:08:23;;;;;;;16.98;10.02;;;;;;;20.92;100.00;100758.03;4949333;28;20130;-75
2023/06/20 05:10:50;;;;;;;18.95;10.27;;;;;;;20.93;100.00;100768.09;4950459;28;20102;-71
2023/06/20 05:13:16;;;;;;;18.17;10.52;;;;;;;20.95;100.00;100768.41;4951346;28;20134;-72
2023/06/20 05:15:43;;;;;;;21.60;10.95;;;;;;;20.96;100.00;100775.59;4953264;28;20134;-71
2023/06/20 05:18:09;;;;;;;20.02;10.15;;;;;;;20.96;100.00;100766.34;4948345;28;20154;-74
2023/06/20 05:20:36;;;;;;;20.27;10.90;;;;;;;20.99;100.00;100771.81;4950422;28;20142;-69
2023/06/20 05:23:02;;;;;;;20.05;10.32;;;;;;;20.99;100.00;100776.69;4951942;28;20059;-68
2023/06/20 05:25:41;;;;;;;22.80;10.57;;;;;;;20.97;100.00;100780.00;4950426;28;20075;-68
2023/06/20 05:28:08;;;;;;;18.85;9.93;;;;;;;21.00;100.00;100781.06;4946739;29;20078;-70
2023/06/20 05:30:34;;;;;;;19.80;10.05;;;;;;;21.05;100.00;100781.16;4948971;28;20447;-70
2023/06/20 05:33:00;;;;;;;43.40;12.93;;;;;;;21.09;100.00;100770.44;4948486;28;20142;-73
2023/06/20 05:35:27;;;;;;;17.05;10.15;;;;;;;21.11;100.00;100767.91;4948244;28;20062;-70
2023/06/20 05:37:54;;;;;;;18.23;9.93;;;;;;;21.14;100.00;100775.41;4948447;28;20410;-68
2023/06/20 05:40:20;;;;;;;20.77;10.80;;;;;;;21.16;100.00;100781.34;4944624;28;20047;-70
2023/06/20 05:42:47;;;;;;;18.77;9.48;;;;;;;21.17;100.00;100782.88;4946041;28;20110;-68
2023/06/20 05:45:13;;;;;;;19.42;10.50;;;;;;;21.13;100.00;100765.34;4950515;28;20071;-68
2023/06/20 05:47:40;;;;;;;17.90;10.75;;;;;;;21.16;100.00;100770.03;4950236;28;20102;-68
2023/06/20 05:50:07;;;;;;;17.73;10.40;;;;;;;21.21;100.00;100771.41;4957030;28;20058;-69
2023/06/20 05:52:35;;;;;;;21.70;10.77;;;;;;;21.26;100.00;100771.47;4952464;28;20138;-67
2023/06/20 05:55:03;;;;;;;18.92;9.65;;;;;;;21.29;100.00;100783.84;4949916;28;20908;-66
2023/06/20 05:57:30;;;;;;;22.30;9.70;;;;;;;21.30;100.00;100779.78;4946163;28;20051;-68
2023/06/20 05:59:56;;;;;;;21.10;10.38;;;;;;;21.33;100.00;100778.81;4951310;28;20079;-68
2023/06/20 06:02:26;;;;;;;20.80;10.40;;;;;;;21.33;100.00;100782.38;4951179;28;20486;-69
2023/06/20 06:04:52;;;;;;;21.50;10.77;;;;;;;21.39;100.00;100783.25;4950893;28;20043;-68
2023/06/20 06:07:19;;;;;;;18.83;11.13;;;;;;;21.43;100.00;100778.19;4950434;28;20058;-69
2023/06/20 06:09:47;;;;;;;27.00;11.95;;;;;;;21.50;100.00;100789.06;4943156;28;20051;-69
2023/06/20 06:12:13;;;;;;;23.70;11.27;;;;;;;21.65;100.00;100789.88;4951150;28;20054;-68
2023/06/20 06:14:40;;;;;;;21.60;10.40;;;;;;;21.79;100.00;100797.53;4949383;28;20055;-68
2023/06/20 06:17:07;;;;;;;26.38;11.13;;;;;;;21.89;100.00;100793.28;4950998;28;20058;-69
2023/06/20 06:19:34;;;;;;;21.95;10.70;;;;;;;22.00;100.00;100798.31;4947350;28;20114;-69
2023/06/20 06:22:00;;;;;;;18.80;10.93;;;;;;;22.09;100.00;100793.31;4950509;28;20553;-69
2023/06/20 06:24:27;;;;;;;19.65;10.95;;;;;;;22.18;100.00;100787.50;4948082;28;20141;-68
2023/06/20 06:26:54;;;;;;;20.02;10.88;;;;;;;22.27;100.00;100792.22;4943870;28;20075;-67
2023/06/20 06:29:20;;;;;;;18.05;10.48;;;;;;;22.31;100.00;100789.97;4950628;28;20130;-69
2023/06/20 06:31:47;;;;;;;18.98;10.98;;;;;;;22.43;100.00;100788.06;4948400;28;20129;-69
2023/06/20 06:34:18;;;;;;;19.58;11.02;;;;;;;22.44;100.00;100783.97;4947607;28;20051;-68
2023/06/20 06:36:48;;;;;;;21.58;10.10;;;;;;;22.46;100.00;100785.03;4948868;28;20055;-68
2023/06/20 06:39:17;;;;;;;20.13;10.02;;;;;;;22.54;100.00;100786.13;4949260;28;20058;-70
2023/06/20 06:41:49;;;;;;;21.08;9.55;;;;;;;22.62;100.00;100787.28;4950118;28;20808;-67
2023/06/20 06:44:16;;;;;;;21.70;10.07;;;;;;;22.70;100.00;100791.22;4948410;28;20121;-69
2023/06/20 06:46:43;;;;;;;21.58;10.15;;;;;;;22.76;100.00;100796.94;4948548;28;20051;-67
2023/06/20 06:49:09;;;;;;;20.63;9.73;;;;;;;22.77;100.00;100799.25;4950038;28;20529;-68
2023/06/20 06:51:38;;;;;;;19.73;9.20;;;;;;;22.79;100.00;100791.06;4949027;28;20090;-70
2023/06/20 06:54:05;;;;;;;19.15;8.98;;;;;;;22.81;100.00;100791.31;4949624;28;20059;-67
2023/06/20 06:56:32;;;;;;;20.95;8.50;;;;;;;22.91;100.00;100789.09;4948658;28;20652;-68
2023/06/20 06:59:00;;;;;;;18.08;8.02;;;;;;;22.99;100.00;100787.41;4940418;28;20157;-68
2023/06/20 07:01:30;;;;;;;18.88;8.40;;;;;;;23.06;100.00;100784.13;4944045;28;20054;-67
2023/06/20 07:03:57;;;;;;;22.73;8.60;;;;;;;23.09;100.00;100774.59;4949068;28;20572;-66
2023/06/20 07:06:24;;;;;;;21.90;9.35;;;;;;;23.13;100.00;100783.66;4955975;28;20101;-63
2023/06/20 07:08:52;;;;;;;18.92;8.75;;;;;;;23.15;100.00;100783.94;4948502;28;20122;-67
2023/06/20 07:11:19;;;;;;;18.10;7.63;;;;;;;23.17;100.00;100776.47;4946512;28;20054;-69
2023/06/20 07:13:45;;;;;;;16.52;7.22;;;;;;;23.30;100.00;100767.53;4946427;29;20485;-68
2023/06/20 07:16:12;;;;;;;18.10;8.10;;;;;;;23.41;100.00;100764.78;4948866;28;20545;-69
2023/06/20 07:18:38;;;;;;;20.35;7.97;;;;;;;23.50;100.00;100754.03;4947923;28;20059;-65
2023/06/20 07:21:05;;;;;;;16.23;7.97;;;;;;;23.66;100.00;100761.13;4945354;28;20137;-66
2023/06/20 07:23:33;;;;;;;14.70;6.60;;;;;;;23.69;100.00;100766.56;4944059;28;20138;-66
2023/06/20 07:26:00;;;;;;;18.88;7.63;;;;;;;23.60;100.00;100760.28;4944272;28;20055;-66
2023/06/20 07:28:28;;;;;;;15.30;7.47;;;;;;;23.54;100.00;100757.41;4948184;28;20139;-69
2023/06/20 07:30:55;;;;;;;18.05;9.00;;;;;;;23.55;100.00;100758.16;4948741;28;20050;-67
2023/06/20 07:33:22;;;;;;;16.83;7.05;;;;;;;23.57;100.00;100756.41;4949376;28;20059;-65
2023/06/20 07:35:48;;;;;;;15.60;6.82;;;;;;;23.58;100.00;100755.09;4948437;28;20110;-68
2023/06/20 07:38:15;;;;;;;16.98;7.97;;;;;;;23.61;100.00;100754.13;4948621;28;20054;-70
2023/06/20 07:40:45;;;;;;;15.60;7.70;;;;;;;23.61;100.00;100756.97;4946853;28;20114;-68
2023/06/20 07:43:11;;;;;;;17.27;7.57;;;;;;;23.61;100.00;100754.13;4948872;28;20083;-70
2023/06/20 07:45:38;;;;;;;18.50;7.80;;;;;;;23.63;100.00;100739.44;4948064;29;20510;-68
2023/06/20 07:48:05;;;;;;;16.80;7.32;;;;;;;23.66;100.00;100744.09;4948480;28;20554;-68
2023/06/20 07:50:31;;;;;;;15.82;7.57;;;;;;;23.72;100.00;100734.31;4948642;28;20772;-68
2023/06/20 07:52:58;;;;;;;17.10;7.70;;;;;;;23.84;100.00;100738.00;4951145;28;20425;-68
2023/06/20 07:55:24;;;;;;;18.45;7.55;;;;;;;23.88;100.00;100741.38;4947130;28;20074;-72
2023/06/20 07:57:57;;;;;;;19.13;8.10;;;;;;;23.93;100.00;100732.09;4943859;29;20047;-72
2023/06/20 08:00:25;;;;;;;19.27;7.82;;;;;;;24.05;100.00;100722.34;4948432;28;20043;-71
2023/06/20 08:02:52;;;;;;;16.88;7.63;;;;;;;24.14;100.00;100716.44;4946851;28;20126;-70
2023/06/20 08:05:19;;;;;;;14.73;7.28;;;;;;;24.22;100.00;100714.66;4948431;28;20053;-70
2023/06/20 08:07:46;;;;;;;13.57;6.35;;;;;;;24.26;100.00;100718.03;4947724;29;20051;-69
2023/06/20 08:10:16;;;;;;;14.80;6.57;;;;;;;24.28;100.00;100710.56;4945629;28;20506;-68
2023/06/20 08:12:42;;;;;;;14.02;6.30;;;;;;;24.32;100.00;100705.41;4942644;29;20082;-68
2023/06/20 08:15:11;;;;;;;10.88;5.68;;;;;;;24.14;100.00;100702.25;4945761;28;20083;-67
2023/06/20 08:17:38;;;;;;;15.88;5.93;;;;;;;24.25;100.00;100699.44;4946884;29;20134;-66
2023/06/20 08:20:09;;;;;;;14.82;6.00;;;;;;;24.30;100.00;100693.78;4947896;28;20418;-67
2023/06/20 08:22:36;;;;;;;15.52;7.55;;;;;;;24.46;100.00;100708.53;4948578;28;20059;-67
2023/06/20 08:25:03;;;;;;;13.73;7.10;;;;;;;24.59;100.00;100709.59;4947841;28;20075;-67
2023/06/20 08:27:31;;;;;;;15.80;6.55;;;;;;;24.72;100.00;100709.06;4945304;28;20052;-66
2023/06/20 08:29:58;;;;;;;15.25;7.00;;;;;;;24.71;100.00;100713.22;4947194;28;20098;-69
2023/06/20 08:32:24;;;;;;;13.32;6.18;;;;;;;24.75;100.00;100710.91;4945045;28;20114;-68
2023/06/20 08:34:51;;;;;;;13.27;6.10;;;;;;;24.83;100.00;100709.88;4943451;28;20126;-70
2023/06/20 08:37:22;;;;;;;16.73;6.15;;;;;;;24.98;100.00;100707.59;4939488;28;20078;-67
2023/06/20 08:39:49;;;;;;;13.93;7.00;;;;;;;25.11;100.00;100707.06;4948798;28;20055;-65
2023/06/20 08:42:15;;;;;;;14.27;7.10;;;;;;;24.92;100.00;100706.03;4945683;28;20047;-67
2023/06/20 08:44:42;;;;;;;13.88;7.22;;;;;;;24.92;100.00;100706.81;4946417;28;20051;-67
2023/06/20 08:47:24;;;;;;;13.43;5.93;;;;;;;24.94;100.00;100711.97;4945425;28;20137;-67
2023/06/20 08:49:51;;;;;;;13.32;5.45;;;;;;;25.10;100.00;100714.00;4948747;28;20087;-68
2023/06/20 08:52:24;;;;;;;10.10;5.20;;;;;;;25.19;100.00;100713.75;4948640;28;20461;-70
2023/06/20 08:54:51;;;;;;;13.93;5.30;;;;;;;25.41;100.00;100705.19;4944939;28;20051;-69
2023/06/20 08:57:18;;;;;;;12.07;4.85;;;;;;;25.62;100.00;100697.94;4948327;28;20043;-70
2023/06/20 08:59:45;;;;;;;11.80;5.40;;;;;;;25.76;100.00;100705.38;4954311;28;20422;-71
2023/06/20 09:02:12;;;;;;;10.90;5.00;;;;;;;25.60;100.00;100709.84;4949134;28;20433;-68
2023/06/20 09:04:40;;;;;;;14.35;5.20;;;;;;;25.72;100.00;100704.88;4951266;28;21563;-67
2023/06/20 09:07:19;;;;;;;9.95;5.03;;;;;;;25.71;100.00;100704.09;4950102;28;20043;-69
2023/06/20 09:09:45;;;;;;;12.48;5.05;;;;;;;25.66;100.00;100693.50;4949638;28;20469;-67
2023/06/20 09:12:12;;;;;;;11.57;4.80;;;;;;;25.74;100.00;100688.03;4949484;28;20473;-67
2023/06/20 09:14:39;;;;;;;12.15;5.63;;;;;;;25.80;100.00;100695.28;4950090;28;20254;-70
2023/06/20 09:17:08;;;;;;;9.45;4.82;;;;;;;25.73;100.00;100695.81;4948864;28;20043;-71
2023/06/20 09:19:43;;;;;;;7.63;4.30;;;;;;;25.68;100.00;100688.06;4949469;29;20142;-71
2023/06/20 09:22:16;;;;;;;10.25;4.43;;;;;;;25.85;100.00;100700.16;4949709;28;20573;-71
2023/06/20 09:24:44;;;;;;;13.13;4.60;;;;;;;25.74;100.00;100691.66;4955186;28;20110;-69
2023/06/20 09:27:12;;;;;;;9.43;4.88;;;;;;;25.87;100.00;100693.94;4948288;28;20051;-68
2023/06/20 09:29:53;;;;;;;10.95;3.92;;;;;;;25.83;100.00;100694.22;4951004;28;20051;-70
2023/06/20 09:32:21;;;;;;;10.40;4.30;;;;;;;25.71;100.00;100697.63;4949836;28;20098;-70
2023/06/20 09:34:49;;;;;;;9.05;4.75;;;;;;;25.92;100.00;100696.00;4945592;29;20051;-70
2023/06/20 09:37:19;;;;;;;8.73;4.63;;;;;;;26.08;100.00;100690.25;4949030;28;20726;-70
2023/06/20 09:39:45;;;;;;;11.20;4.35;;;;;;;26.18;100.00;100691.47;4951415;28;20430;-69
2023/06/20 09:42:12;;;;;;;12.13;5.30;;;;;;;26.06;100.00;100689.97;4950441;28;20081;-71
2023/06/20 09:44:40;;;;;;;6.18;3.95;;;;;;;26.04;100.00;100689.75;4950648;28;20591;-64
2023/06/20 09:47:07;;;;;;;7.40;4.13;;;;;;;26.02;100.00;100688.69;4953884;28;20047;-70
2023/06/20 09:49:35;;;;;;;12.18;5.78;;;;;;;26.11;100.00;100682.72;4952317;28;20142;-68
2023/06/20 09:52:13;;;;;;;12.40;4.50;;;;;;;26.36;100.00;100675.84;4949375;28;20181;-67
2023/06/20 09:54:50;;;;;;;8.23;4.28;;;;;;;26.37;100.00;100680.22;4949966;29;20514;-69
2023/06/20 09:57:26;;;;;;;9.00;4.40;;;;;;;26.36;100.00;100685.16;4950117;28;20051;-70
2023/06/20 09:59:55;;;;;;;9.10;4.32;;;;;;;26.30;100.00;100690.09;4946998;28;20058;-72
2023/06/20 10:02:24;;;;;;;8.68;4.53;;;;;;;26.47;100.00;100690.00;4948191;28;20122;-70
2023/06/20 10:04:52;;;;;;;8.13;4.53;;;;;;;26.69;100.00;100690.66;4949712;28;20130;-72
2023/06/20 10:07:21;;;;;;;7.22;4.15;;;;;;;26.67;100.00;100686.78;4948722;28;20047;-69
2023/06/20 10:09:50;;;;;;;6.25;3.63;;;;;;;26.41;100.00;100683.56;4942749;28;20525;-66
2023/06/20 10:12:17;;;;;;;10.77;4.38;;;;;;;26.65;100.00;100681.63;4980277;28;20059;-67
2023/06/20 10:14:43;;;;;;;9.18;4.07;;;;;;;26.74;100.00;100675.56;4950033;28;20486;-70
2023/06/20 10:17:15;;;;;;;7.50;3.90;;;;;;;26.91;100.00;100683.22;4950562;28;20043;-67
2023/06/20 10:19:51;;;;;;;6.10;3.70;;;;;;;27.10;100.00;100679.13;4949491;28;20486;-68
2023/06/20 10:22:43;;;;;;;6.38;4.00;;;;;;;27.06;100.00;100678.66;4948502;29;20061;-67
2023/06/20 10:25:13;;;;;;;8.05;3.83;;;;;;;26.96;100.00;100686.00;4946334;29;20134;-68
2023/06/20 10:27:42;;;;;;;7.38;4.05;;;;;;;27.29;100.00;100673.53;4944299;28;20051;-68
2023/06/20 10:30:12;;;;;;;8.05;4.35;;;;;;;27.33;100.00;100686.19;4950051;28;20572;-68
2023/06/20 10:33:08;;;;;;;6.80;3.45;;;;;;;27.13;100.00;100680.94;4950359;28;20455;-65
2023/06/20 10:35:35;;;;;;;9.05;4.85;;;;;;;27.39;100.00;100672.66;4936203;28;20058;-68
2023/06/20 10:38:08;;;;;;;6.47;3.22;;;;;;;27.28;100.00;100681.34;4942980;28;20054;-69
2023/06/20 10:40:36;;;;;;;10.00;4.40;;;;;;;27.45;100.00;100670.50;4946776;28;20104;-68
2023/06/20 10:43:07;;;;;;;7.57;4.00;;;;;;;27.56;100.00;100675.31;4944311;28;20473;-69
2023/06/20 10:45:35;;;;;;;8.13;4.30;;;;;;;27.78;100.00;100661.59;4947054;28;20556;-66
2023/06/20 10:48:02;;;;;;;9.02;4.72;;;;;;;28.06;100.00;100659.13;4949853;28;20051;-69
2023/06/20 10:50:29;;;;;;;7.00;3.80;;;;;;;28.12;100.00;100667.63;4946168;28;20055;-73
2023/06/20 10:52:58;;;;;;;9.77;4.45;;;;;;;28.09;100.00;100665.84;4949436;28;20138;-69
2023/06/20 10:55:27;;;;;;;6.50;3.65;;;;;;;27.85;100.00;100654.47;4944817;28;20051;-68
2023/06/20 10:57:55;;;;;;;7.03;4.00;;;;;;;27.93;100.00;100658.25;4943177;28;20117;-68
2023/06/20 11:00:22;;;;;;;6.70;3.55;;;;;;;27.44;100.00;100656.78;4946306;28;20070;-68
2023/06/20 11:02:53;;;;;;;7.35;4.55;;;;;;;27.37;100.00;100652.41;4947609;28;20047;-68
2023/06/20 11:05:26;;;;;;;6.70;4.20;;;;;;;27.52;100.00;100646.28;4947524;28;20074;-70
2023/06/20 11:08:00;;;;;;;8.20;4.50;;;;;;;27.86;100.00;100647.44;4948924;28;20043;-68
2023/06/20 11:10:30;;;;;;;7.07;4.35;;;;;;;28.16;100.00;100646.00;4948453;28;20062;-70
2023/06/20 11:12:58;;;;;;;8.30;4.85;;;;;;;28.02;100.00;100644.38;4976199;28;20082;-68
2023/06/20 11:15:26;;;;;;;8.68;4.22;;;;;;;27.81;100.00;100634.78;4948078;28;20102;-68